createdAt,value
2023-03-22T00:01:20.790Z,8.85
2023-03-22T00:06:24.926Z,9.27
2023-03-22T00:11:29.877Z,8.87
2023-03-22T00:21:36.609Z,7.68
2023-03-22T00:26:41.772Z,9.18
2023-03-22T00:36:48.699Z,8.20
2023-03-22T00:41:53.653Z,7.40
2023-03-22T00:52:00.286Z,6.60
2023-03-22T00:57:05.273Z,5.90
2023-03-22T01:07:11.986Z,5.60
2023-03-22T01:12:17.087Z,5.55
2023-03-22T01:17:20.609Z,4.97
2023-03-22T01:22:23.937Z,4.97
2023-03-22T01:27:28.961Z,4.63
2023-03-22T01:32:32.526Z,4.90
2023-03-22T01:37:36.337Z,4.50
2023-03-22T01:42:41.380Z,4.25
2023-03-22T01:52:51.192Z,4.47
2023-03-22T01:57:56.895Z,4.50
2023-03-22T02:03:00.999Z,3.75
2023-03-22T02:08:05.266Z,4.10
2023-03-22T02:13:35.011Z,3.47
2023-03-22T02:18:54.668Z,3.35
2023-03-22T02:24:28.039Z,3.38
2023-03-22T02:29:41.939Z,2.85
2023-03-22T02:35:22.752Z,2.45
2023-03-22T02:40:33.348Z,2.50
2023-03-22T02:45:44.655Z,2.03
2023-03-22T02:50:55.001Z,2.17
2023-03-22T02:56:03.590Z,2.30
2023-03-22T03:01:10.693Z,1.70
2023-03-22T03:06:18.138Z,1.90
2023-03-22T03:11:23.708Z,1.40
2023-03-22T03:16:29.632Z,1.55
2023-03-22T03:21:42.766Z,1.67
2023-03-22T03:26:57.484Z,1.20
2023-03-22T03:32:08.616Z,1.10
2023-03-22T03:37:18.832Z,1.30
2023-03-22T03:42:27.306Z,1.75
2023-03-22T03:47:32.512Z,1.80
2023-03-22T03:52:36.337Z,2.30
2023-03-22T03:57:41.408Z,1.90
2023-03-22T04:07:48.393Z,2.40
2023-03-22T04:12:53.177Z,1.85
2023-03-22T04:17:56.482Z,1.70
2023-03-22T04:23:00.586Z,1.77
2023-03-22T04:28:05.821Z,1.80
2023-03-22T04:33:09.305Z,1.80
2023-03-22T04:38:12.641Z,1.80
2023-03-22T04:43:19.020Z,1.30
2023-03-22T04:48:22.652Z,1.40
2023-03-22T04:53:27.575Z,0.95
2023-03-22T05:03:36.745Z,1.13
2023-03-22T05:08:40.173Z,1.50
2023-03-22T05:13:45.323Z,1.40
2023-03-22T05:18:49.983Z,1.50
2023-03-22T05:23:53.481Z,1.70
2023-03-22T05:28:58.353Z,2.10
2023-03-22T05:34:02.007Z,1.65
2023-03-22T05:39:05.933Z,2.15
2023-03-22T05:44:10.937Z,1.90
2023-03-22T05:49:14.482Z,2.13
2023-03-22T05:54:17.966Z,2.10
2023-03-22T05:59:22.690Z,1.48
2023-03-22T06:04:26.221Z,1.52
2023-03-22T06:09:29.865Z,1.40
2023-03-22T06:14:34.643Z,1.45
2023-03-22T06:19:38.072Z,1.48
2023-03-22T06:24:42.707Z,2.58
2023-03-22T06:29:51.133Z,1.38
2023-03-22T06:34:54.778Z,1.50
2023-03-22T06:39:58.102Z,1.20
2023-03-22T06:45:03.164Z,1.33
2023-03-22T06:50:07.610Z,1.27
2023-03-22T06:55:11.405Z,1.10
2023-03-22T07:00:18.604Z,1.15
2023-03-22T07:05:22.633Z,1.00
2023-03-22T07:10:26.123Z,1.48
2023-03-22T07:15:31.292Z,1.20
2023-03-22T07:20:38.702Z,1.25
2023-03-22T07:25:42.361Z,1.20
2023-03-22T07:30:47.292Z,1.20
2023-03-22T07:35:50.752Z,1.05
2023-03-22T07:40:55.481Z,1.20
2023-03-22T07:46:00.418Z,1.20
2023-03-22T07:51:03.872Z,0.90
2023-03-22T07:56:08.256Z,1.13
2023-03-22T08:01:15.380Z,0.90
2023-03-22T08:06:19.717Z,1.00
2023-03-22T08:16:27.600Z,1.70
2023-03-22T08:21:31.107Z,1.00
2023-03-22T08:26:34.725Z,1.00
2023-03-22T08:31:39.729Z,0.95
2023-03-22T08:36:43.779Z,1.10
2023-03-22T08:41:47.398Z,1.20
2023-03-22T08:46:52.416Z,1.10
2023-03-22T08:51:57.853Z,1.20
2023-03-22T08:57:03.520Z,1.27
2023-03-22T09:02:08.526Z,1.42
2023-03-22T09:07:12.331Z,1.60
2023-03-22T09:12:15.844Z,1.70
2023-03-22T09:17:22.465Z,1.07
2023-03-22T09:22:26.497Z,1.33
2023-03-22T09:27:29.976Z,1.63
2023-03-22T09:32:34.923Z,1.42
2023-03-22T09:37:38.417Z,1.17
2023-03-22T09:42:44.605Z,1.40
2023-03-22T09:47:53.731Z,1.45
2023-03-22T09:52:57.547Z,1.13
2023-03-22T09:58:07.620Z,7.00
2023-03-22T10:03:23.265Z,8.60
2023-03-22T10:08:39.516Z,1.75
2023-03-22T10:13:52.068Z,2.58
2023-03-22T10:19:03.052Z,1.40
2023-03-22T10:24:14.132Z,1.60
2023-03-22T10:29:25.101Z,2.17
2023-03-22T10:34:32.798Z,2.10
2023-03-22T10:39:40.090Z,1.50
2023-03-22T10:44:49.366Z,1.10
2023-03-22T10:49:57.769Z,1.02
2023-03-22T10:55:04.448Z,1.00
2023-03-22T11:00:12.131Z,1.30
2023-03-22T11:05:25.109Z,1.20
2023-03-22T11:10:32.979Z,1.08
2023-03-22T11:15:38.675Z,1.10
2023-03-22T11:20:53.778Z,0.80
2023-03-22T11:31:07.922Z,0.70
2023-03-22T11:36:20.195Z,1.10
2023-03-22T11:41:26.173Z,1.25
2023-03-22T11:46:31.314Z,1.20
2023-03-22T11:51:38.878Z,1.10
2023-03-22T11:56:44.813Z,1.10
2023-03-22T12:01:54.000Z,0.93
2023-03-22T12:07:01.554Z,0.80
2023-03-22T12:12:07.916Z,0.90
2023-03-22T12:17:17.366Z,0.93
2023-03-22T12:22:27.411Z,0.90
2023-03-22T12:27:35.511Z,0.80
2023-03-22T12:32:43.295Z,0.95
2023-03-22T12:37:52.725Z,1.20
2023-03-22T12:43:06.041Z,0.90
2023-03-22T12:48:18.253Z,0.90
2023-03-22T12:53:28.395Z,0.98
2023-03-22T12:58:31.817Z,0.90
2023-03-22T13:03:40.630Z,0.98
2023-03-22T13:09:15.758Z,1.00
2023-03-22T13:14:58.174Z,1.00
2023-03-22T13:20:06.838Z,1.10
2023-03-22T13:25:35.946Z,0.82
2023-03-22T13:30:50.866Z,1.00
2023-03-22T13:35:57.072Z,1.17
2023-03-22T13:41:09.416Z,0.80
2023-03-22T13:46:28.320Z,1.00
2023-03-22T13:51:33.823Z,0.80
2023-03-22T13:56:54.565Z,0.90
2023-03-22T14:02:01.335Z,0.80
2023-03-22T14:07:11.379Z,0.73
2023-03-22T14:12:22.526Z,0.75
2023-03-22T14:17:35.658Z,0.82
